sensor_id;sensor_type;location;lat;lon;timestamp;temperature;humidity
25482;DHT22;13395;50.752;4.268;2022-10-23T00:00:46;14.70;99.90
25482;DHT22;13395;50.752;4.268;2022-10-23T00:03:11;14.70;99.90
25482;DHT22;13395;50.752;4.268;2022-10-23T00:05:38;14.70;99.90
25482;DHT22;13395;50.752;4.268;2022-10-23T00:08:04;14.80;99.90
25482;DHT22;13395;50.752;4.268;2022-10-23T00:10:29;14.70;99.90
25482;DHT22;13395;50.752;4.268;2022-10-23T00:12:55;14.70;99.90
25482;DHT22;13395;50.752;4.268;2022-10-23T00:15:21;14.80;99.90
25482;DHT22;13395;50.752;4.268;2022-10-23T00:17:47;14.70;99.90
25482;DHT22;13395;50.752;4.268;2022-10-23T00:20:13;14.70;99.90
25482;DHT22;13395;50.752;4.268;2022-10-23T00:22:39;14.70;99.90
25482;DHT22;13395;50.752;4.268;2022-10-23T00:25:06;14.70;99.90
25482;DHT22;13395;50.752;4.268;2022-10-23T00:27:31;14.70;99.90
25482;DHT22;13395;50.752;4.268;2022-10-23T00:29:57;14.70;99.90
25482;DHT22;13395;50.752;4.268;2022-10-23T00:32:22;14.70;99.90
25482;DHT22;13395;50.752;4.268;2022-10-23T00:34:48;14.80;99.90
25482;DHT22;13395;50.752;4.268;2022-10-23T00:37:13;14.80;99.90
25482;DHT22;13395;50.752;4.268;2022-10-23T00:39:39;14.80;99.90
25482;DHT22;13395;50.752;4.268;2022-10-23T00:42:05;14.80;99.90
25482;DHT22;13395;50.752;4.268;2022-10-23T00:46:56;14.80;99.90
25482;DHT22;13395;50.752;4.268;2022-10-23T00:49:22;14.80;99.90
25482;DHT22;13395;50.752;4.268;2022-10-23T00:51:49;14.80;99.90
25482;DHT22;13395;50.752;4.268;2022-10-23T00:54:15;14.80;99.90
25482;DHT22;13395;50.752;4.268;2022-10-23T00:56:42;14.90;99.90
25482;DHT22;13395;50.752;4.268;2022-10-23T00:59:08;15.00;99.90
25482;DHT22;13395;50.752;4.268;2022-10-23T01:01:34;15.00;99.90
25482;DHT22;13395;50.752;4.268;2022-10-23T01:04:00;15.00;99.90
25482;DHT22;13395;50.752;4.268;2022-10-23T01:06:43;15.00;99.90
25482;DHT22;13395;50.752;4.268;2022-10-23T01:12:08;15.10;99.90
25482;DHT22;13395;50.752;4.268;2022-10-23T01:17:19;15.20;99.90
25482;DHT22;13395;50.752;4.268;2022-10-23T01:27:38;15.20;99.90
25482;DHT22;13395;50.752;4.268;2022-10-23T01:30:06;15.20;99.90
25482;DHT22;13395;50.752;4.268;2022-10-23T01:32:38;15.30;99.90
25482;DHT22;13395;50.752;4.268;2022-10-23T01:35:12;15.20;99.90
25482;DHT22;13395;50.752;4.268;2022-10-23T01:37:45;15.20;99.90
25482;DHT22;13395;50.752;4.268;2022-10-23T01:40:54;15.20;99.90
25482;DHT22;13395;50.752;4.268;2022-10-23T01:43:03;15.30;99.90
25482;DHT22;13395;50.752;4.268;2022-10-23T01:45:51;15.20;99.90
25482;DHT22;13395;50.752;4.268;2022-10-23T01:48:17;15.20;99.90
25482;DHT22;13395;50.752;4.268;2022-10-23T01:50:43;15.20;99.90
25482;DHT22;13395;50.752;4.268;2022-10-23T01:53:09;15.20;99.90
25482;DHT22;13395;50.752;4.268;2022-10-23T01:55:35;15.20;99.90
25482;DHT22;13395;50.752;4.268;2022-10-23T01:58:01;15.20;99.90
25482;DHT22;13395;50.752;4.268;2022-10-23T02:00:28;15.20;99.90
25482;DHT22;13395;50.752;4.268;2022-10-23T02:02:54;15.20;99.90
25482;DHT22;13395;50.752;4.268;2022-10-23T02:05:23;15.10;99.90
25482;DHT22;13395;50.752;4.268;2022-10-23T02:07:48;15.20;99.90
25482;DHT22;13395;50.752;4.268;2022-10-23T02:10:14;15.20;99.90
25482;DHT22;13395;50.752;4.268;2022-10-23T02:12:46;15.30;99.90
25482;DHT22;13395;50.752;4.268;2022-10-23T02:15:33;15.20;99.90
25482;DHT22;13395;50.752;4.268;2022-10-23T02:20:46;15.20;99.90
25482;DHT22;13395;50.752;4.268;2022-10-23T02:23:18;15.20;99.90
25482;DHT22;13395;50.752;4.268;2022-10-23T02:25:47;15.20;99.90
25482;DHT22;13395;50.752;4.268;2022-10-23T02:28:14;15.30;99.90
25482;DHT22;13395;50.752;4.268;2022-10-23T02:30:40;15.40;99.90
25482;DHT22;13395;50.752;4.268;2022-10-23T02:33:08;15.40;99.90
25482;DHT22;13395;50.752;4.268;2022-10-23T02:35:34;15.40;99.90
25482;DHT22;13395;50.752;4.268;2022-10-23T02:38:00;15.40;99.90
25482;DHT22;13395;50.752;4.268;2022-10-23T02:40:29;15.40;99.90
25482;DHT22;13395;50.752;4.268;2022-10-23T02:43:00;15.40;99.90
25482;DHT22;13395;50.752;4.268;2022-10-23T02:45:31;15.40;99.90
25482;DHT22;13395;50.752;4.268;2022-10-23T02:48:12;15.50;99.90
25482;DHT22;13395;50.752;4.268;2022-10-23T02:50:43;15.50;99.90
25482;DHT22;13395;50.752;4.268;2022-10-23T02:55:42;15.60;99.90
25482;DHT22;13395;50.752;4.268;2022-10-23T03:00:38;15.60;99.90
25482;DHT22;13395;50.752;4.268;2022-10-23T03:03:16;15.50;99.90
25482;DHT22;13395;50.752;4.268;2022-10-23T03:05:43;15.50;99.90
25482;DHT22;13395;50.752;4.268;2022-10-23T03:08:12;15.40;99.90
25482;DHT22;13395;50.752;4.268;2022-10-23T03:10:38;15.40;99.90
25482;DHT22;13395;50.752;4.268;2022-10-23T03:13:04;15.40;99.90
25482;DHT22;13395;50.752;4.268;2022-10-23T03:15:29;15.40;99.90
25482;DHT22;13395;50.752;4.268;2022-10-23T03:17:55;15.40;99.90
25482;DHT22;13395;50.752;4.268;2022-10-23T03:20:20;15.40;99.90
25482;DHT22;13395;50.752;4.268;2022-10-23T03:22:46;15.40;99.90
25482;DHT22;13395;50.752;4.268;2022-10-23T03:25:11;15.50;99.90
25482;DHT22;13395;50.752;4.268;2022-10-23T03:27:37;15.40;99.90
25482;DHT22;13395;50.752;4.268;2022-10-23T03:30:02;15.40;99.90
25482;DHT22;13395;50.752;4.268;2022-10-23T03:32:28;15.40;99.90
25482;DHT22;13395;50.752;4.268;2022-10-23T03:34:54;15.50;99.90
25482;DHT22;13395;50.752;4.268;2022-10-23T03:37:19;15.50;99.90
25482;DHT22;13395;50.752;4.268;2022-10-23T03:39:45;15.40;99.90
25482;DHT22;13395;50.752;4.268;2022-10-23T03:42:10;15.40;99.90
25482;DHT22;13395;50.752;4.268;2022-10-23T03:44:36;15.40;99.90
25482;DHT22;13395;50.752;4.268;2022-10-23T03:47:01;15.40;99.90
25482;DHT22;13395;50.752;4.268;2022-10-23T03:49:27;15.50;99.90
25482;DHT22;13395;50.752;4.268;2022-10-23T03:51:52;15.40;99.90
25482;DHT22;13395;50.752;4.268;2022-10-23T03:54:22;15.40;99.90
25482;DHT22;13395;50.752;4.268;2022-10-23T03:56:48;15.40;99.90
25482;DHT22;13395;50.752;4.268;2022-10-23T03:59:13;15.40;99.90
25482;DHT22;13395;50.752;4.268;2022-10-23T04:01:39;15.40;99.90
25482;DHT22;13395;50.752;4.268;2022-10-23T04:04:05;15.30;99.90
25482;DHT22;13395;50.752;4.268;2022-10-23T04:06:30;15.30;99.90
25482;DHT22;13395;50.752;4.268;2022-10-23T04:08:56;15.30;99.90
25482;DHT22;13395;50.752;4.268;2022-10-23T04:11:21;15.40;99.90
25482;DHT22;13395;50.752;4.268;2022-10-23T04:13:47;15.50;99.90
25482;DHT22;13395;50.752;4.268;2022-10-23T04:16:12;15.50;99.90
25482;DHT22;13395;50.752;4.268;2022-10-23T04:18:41;15.50;99.90
25482;DHT22;13395;50.752;4.268;2022-10-23T04:21:07;15.40;99.90
25482;DHT22;13395;50.752;4.268;2022-10-23T04:23:32;15.50;99.90
25482;DHT22;13395;50.752;4.268;2022-10-23T04:25:58;15.50;99.90
25482;DHT22;13395;50.752;4.268;2022-10-23T04:28:24;15.50;99.90
25482;DHT22;13395;50.752;4.268;2022-10-23T04:30:49;15.40;99.90
25482;DHT22;13395;50.752;4.268;2022-10-23T04:33:15;15.30;99.90
25482;DHT22;13395;50.752;4.268;2022-10-23T04:35:41;15.30;99.90
25482;DHT22;13395;50.752;4.268;2022-10-23T04:38:06;15.30;99.90
25482;DHT22;13395;50.752;4.268;2022-10-23T04:40:32;15.30;99.90
25482;DHT22;13395;50.752;4.268;2022-10-23T04:42:57;15.30;99.90
25482;DHT22;13395;50.752;4.268;2022-10-23T04:45:23;15.30;99.90
25482;DHT22;13395;50.752;4.268;2022-10-23T04:47:48;15.30;99.90
25482;DHT22;13395;50.752;4.268;2022-10-23T04:50:14;15.30;99.90
25482;DHT22;13395;50.752;4.268;2022-10-23T04:52:39;15.30;99.90
25482;DHT22;13395;50.752;4.268;2022-10-23T04:55:05;15.40;99.90
25482;DHT22;13395;50.752;4.268;2022-10-23T04:57:31;15.40;99.90
25482;DHT22;13395;50.752;4.268;2022-10-23T04:59:56;15.40;99.90
25482;DHT22;13395;50.752;4.268;2022-10-23T05:02:22;15.30;99.90
25482;DHT22;13395;50.752;4.268;2022-10-23T05:04:48;15.40;99.90
25482;DHT22;13395;50.752;4.268;2022-10-23T05:07:14;15.40;99.90
25482;DHT22;13395;50.752;4.268;2022-10-23T05:09:39;15.50;99.90
25482;DHT22;13395;50.752;4.268;2022-10-23T05:12:05;15.50;99.90
25482;DHT22;13395;50.752;4.268;2022-10-23T05:14:30;15.60;99.90
25482;DHT22;13395;50.752;4.268;2022-10-23T05:16:57;15.50;99.90
25482;DHT22;13395;50.752;4.268;2022-10-23T05:19:26;15.50;99.90
25482;DHT22;13395;50.752;4.268;2022-10-23T05:21:53;15.50;99.90
25482;DHT22;13395;50.752;4.268;2022-10-23T05:24:21;15.40;99.90
25482;DHT22;13395;50.752;4.268;2022-10-23T05:26:46;15.30;99.90
25482;DHT22;13395;50.752;4.268;2022-10-23T05:29:12;15.30;99.90
25482;DHT22;13395;50.752;4.268;2022-10-23T05:31:37;15.40;99.90
25482;DHT22;13395;50.752;4.268;2022-10-23T05:34:03;15.30;99.90
25482;DHT22;13395;50.752;4.268;2022-10-23T05:36:29;15.40;99.90
25482;DHT22;13395;50.752;4.268;2022-10-23T05:38:55;15.40;99.90
25482;DHT22;13395;50.752;4.268;2022-10-23T05:41:21;15.40;99.90
25482;DHT22;13395;50.752;4.268;2022-10-23T05:43:46;15.30;99.90
25482;DHT22;13395;50.752;4.268;2022-10-23T05:46:12;15.40;99.90
25482;DHT22;13395;50.752;4.268;2022-10-23T05:48:37;15.30;99.90
25482;DHT22;13395;50.752;4.268;2022-10-23T05:51:07;15.30;99.90
25482;DHT22;13395;50.752;4.268;2022-10-23T05:53:32;15.30;99.90
25482;DHT22;13395;50.752;4.268;2022-10-23T05:56:05;15.30;99.90
25482;DHT22;13395;50.752;4.268;2022-10-23T05:58:31;15.40;99.90
25482;DHT22;13395;50.752;4.268;2022-10-23T06:00:56;15.40;99.90
25482;DHT22;13395;50.752;4.268;2022-10-23T06:03:22;15.40;99.90
25482;DHT22;13395;50.752;4.268;2022-10-23T06:05:48;15.40;99.90
25482;DHT22;13395;50.752;4.268;2022-10-23T06:08:13;15.30;99.90
25482;DHT22;13395;50.752;4.268;2022-10-23T06:10:39;15.30;99.90
25482;DHT22;13395;50.752;4.268;2022-10-23T06:13:04;15.40;99.90
25482;DHT22;13395;50.752;4.268;2022-10-23T06:15:31;15.40;99.90
25482;DHT22;13395;50.752;4.268;2022-10-23T06:18:00;15.40;99.90
25482;DHT22;13395;50.752;4.268;2022-10-23T06:20:26;15.40;99.90
25482;DHT22;13395;50.752;4.268;2022-10-23T06:22:51;15.30;99.90
25482;DHT22;13395;50.752;4.268;2022-10-23T06:25:17;15.30;99.90
25482;DHT22;13395;50.752;4.268;2022-10-23T06:27:42;15.30;99.90
25482;DHT22;13395;50.752;4.268;2022-10-23T06:30:08;15.40;99.90
25482;DHT22;13395;50.752;4.268;2022-10-23T06:32:33;15.40;99.90
25482;DHT22;13395;50.752;4.268;2022-10-23T06:34:59;15.30;99.90
25482;DHT22;13395;50.752;4.268;2022-10-23T06:37:24;15.30;99.90
25482;DHT22;13395;50.752;4.268;2022-10-23T06:39:50;15.40;99.90
25482;DHT22;13395;50.752;4.268;2022-10-23T06:42:15;15.40;99.90
25482;DHT22;13395;50.752;4.268;2022-10-23T06:44:41;15.40;99.90
25482;DHT22;13395;50.752;4.268;2022-10-23T06:47:07;15.40;99.90
25482;DHT22;13395;50.752;4.268;2022-10-23T06:49:34;15.40;99.90
25482;DHT22;13395;50.752;4.268;2022-10-23T06:52:00;15.50;99.90
25482;DHT22;13395;50.752;4.268;2022-10-23T06:54:25;15.50;99.90
25482;DHT22;13395;50.752;4.268;2022-10-23T06:56:51;15.50;99.90
25482;DHT22;13395;50.752;4.268;2022-10-23T06:59:17;15.40;99.90
25482;DHT22;13395;50.752;4.268;2022-10-23T07:01:43;15.40;99.90
25482;DHT22;13395;50.752;4.268;2022-10-23T07:04:09;15.60;99.90
25482;DHT22;13395;50.752;4.268;2022-10-23T07:06:34;15.60;99.90
25482;DHT22;13395;50.752;4.268;2022-10-23T07:09:00;15.80;99.90
25482;DHT22;13395;50.752;4.268;2022-10-23T07:11:25;15.80;99.90
25482;DHT22;13395;50.752;4.268;2022-10-23T07:13:52;15.90;99.90
25482;DHT22;13395;50.752;4.268;2022-10-23T07:16:18;15.90;99.90
25482;DHT22;13395;50.752;4.268;2022-10-23T07:18:45;15.90;99.90
25482;DHT22;13395;50.752;4.268;2022-10-23T07:21:11;16.00;99.90
25482;DHT22;13395;50.752;4.268;2022-10-23T07:23:36;16.10;99.90
25482;DHT22;13395;50.752;4.268;2022-10-23T07:26:09;16.10;99.90
25482;DHT22;13395;50.752;4.268;2022-10-23T07:28:35;16.20;99.90
25482;DHT22;13395;50.752;4.268;2022-10-23T07:31:01;16.20;99.90
25482;DHT22;13395;50.752;4.268;2022-10-23T07:33:27;16.10;99.90
25482;DHT22;13395;50.752;4.268;2022-10-23T07:35:52;16.20;99.90
25482;DHT22;13395;50.752;4.268;2022-10-23T07:38:18;16.10;99.90
25482;DHT22;13395;50.752;4.268;2022-10-23T07:40:44;16.20;99.90
25482;DHT22;13395;50.752;4.268;2022-10-23T07:43:09;16.30;99.90
25482;DHT22;13395;50.752;4.268;2022-10-23T07:45:35;16.40;99.90
25482;DHT22;13395;50.752;4.268;2022-10-23T07:48:00;16.40;99.90
25482;DHT22;13395;50.752;4.268;2022-10-23T07:50:26;16.60;99.90
25482;DHT22;13395;50.752;4.268;2022-10-23T07:52:51;16.60;99.90
25482;DHT22;13395;50.752;4.268;2022-10-23T07:55:17;16.70;99.90
25482;DHT22;13395;50.752;4.268;2022-10-23T07:57:42;16.70;99.90
25482;DHT22;13395;50.752;4.268;2022-10-23T08:00:09;16.60;99.90
25482;DHT22;13395;50.752;4.268;2022-10-23T08:02:35;16.60;99.90
25482;DHT22;13395;50.752;4.268;2022-10-23T08:05:00;16.50;99.90
25482;DHT22;13395;50.752;4.268;2022-10-23T08:07:26;16.60;99.90
25482;DHT22;13395;50.752;4.268;2022-10-23T08:09:51;16.60;99.90
25482;DHT22;13395;50.752;4.268;2022-10-23T08:12:17;16.80;99.90
25482;DHT22;13395;50.752;4.268;2022-10-23T08:14:42;16.70;99.90
25482;DHT22;13395;50.752;4.268;2022-10-23T08:17:08;16.80;99.90
25482;DHT22;13395;50.752;4.268;2022-10-23T08:19:34;16.80;99.90
25482;DHT22;13395;50.752;4.268;2022-10-23T08:22:00;16.70;99.90
25482;DHT22;13395;50.752;4.268;2022-10-23T08:24:25;16.80;99.90
25482;DHT22;13395;50.752;4.268;2022-10-23T08:26:51;16.90;99.90
25482;DHT22;13395;50.752;4.268;2022-10-23T08:29:16;17.10;99.90
25482;DHT22;13395;50.752;4.268;2022-10-23T08:31:42;17.00;99.90
25482;DHT22;13395;50.752;4.268;2022-10-23T08:34:07;17.00;99.90
25482;DHT22;13395;50.752;4.268;2022-10-23T08:36:33;17.00;99.90
25482;DHT22;13395;50.752;4.268;2022-10-23T08:39:00;16.90;99.90
25482;DHT22;13395;50.752;4.268;2022-10-23T08:46:36;16.80;99.90
25482;DHT22;13395;50.752;4.268;2022-10-23T08:49:09;16.80;99.90
25482;DHT22;13395;50.752;4.268;2022-10-23T08:51:41;16.70;99.90
25482;DHT22;13395;50.752;4.268;2022-10-23T08:54:13;16.80;99.90
25482;DHT22;13395;50.752;4.268;2022-10-23T08:56:40;17.00;99.90
25482;DHT22;13395;50.752;4.268;2022-10-23T08:59:20;17.00;99.90
25482;DHT22;13395;50.752;4.268;2022-10-23T09:01:51;17.10;99.90
25482;DHT22;13395;50.752;4.268;2022-10-23T09:04:19;17.20;99.90
25482;DHT22;13395;50.752;4.268;2022-10-23T09:11:48;17.30;99.90
25482;DHT22;13395;50.752;4.268;2022-10-23T09:19:24;17.50;99.90
25482;DHT22;13395;50.752;4.268;2022-10-23T09:21:51;17.60;99.90
25482;DHT22;13395;50.752;4.268;2022-10-23T09:24:18;17.70;99.90
25482;DHT22;13395;50.752;4.268;2022-10-23T09:26:44;17.90;99.90
25482;DHT22;13395;50.752;4.268;2022-10-23T09:29:33;18.10;99.90
25482;DHT22;13395;50.752;4.268;2022-10-23T09:32:04;18.20;99.90
25482;DHT22;13395;50.752;4.268;2022-10-23T09:34:30;18.20;99.90
25482;DHT22;13395;50.752;4.268;2022-10-23T09:37:00;18.30;99.90
25482;DHT22;13395;50.752;4.268;2022-10-23T09:39:30;18.40;99.90
25482;DHT22;13395;50.752;4.268;2022-10-23T09:41:56;18.40;99.90
25482;DHT22;13395;50.752;4.268;2022-10-23T09:44:26;18.60;99.90
25482;DHT22;13395;50.752;4.268;2022-10-23T09:46:54;18.70;99.90
25482;DHT22;13395;50.752;4.268;2022-10-23T09:51:50;18.90;99.90
25482;DHT22;13395;50.752;4.268;2022-10-23T09:54:17;18.80;99.90
25482;DHT22;13395;50.752;4.268;2022-10-23T09:56:46;18.60;99.90
25482;DHT22;13395;50.752;4.268;2022-10-23T10:01:51;18.90;99.90
25482;DHT22;13395;50.752;4.268;2022-10-23T10:04:17;18.90;99.90
25482;DHT22;13395;50.752;4.268;2022-10-23T10:06:42;18.90;99.90
25482;DHT22;13395;50.752;4.268;2022-10-23T10:09:12;19.00;99.90
25482;DHT22;13395;50.752;4.268;2022-10-23T10:11:51;19.20;99.90
25482;DHT22;13395;50.752;4.268;2022-10-23T10:35:02;19.80;99.90
25482;DHT22;13395;50.752;4.268;2022-10-23T10:40:14;19.90;99.90
25482;DHT22;13395;50.752;4.268;2022-10-23T10:50:23;20.50;99.90
25482;DHT22;13395;50.752;4.268;2022-10-23T10:55:36;20.70;99.90
25482;DHT22;13395;50.752;4.268;2022-10-23T11:00:29;20.60;99.90
25482;DHT22;13395;50.752;4.268;2022-10-23T11:05:37;20.60;99.90
25482;DHT22;13395;50.752;4.268;2022-10-23T11:08:15;20.80;99.90
25482;DHT22;13395;50.752;4.268;2022-10-23T11:10:46;20.90;99.90
25482;DHT22;13395;50.752;4.268;2022-10-23T11:15:45;21.30;99.90
25482;DHT22;13395;50.752;4.268;2022-10-23T11:18:11;21.40;99.90
25482;DHT22;13395;50.752;4.268;2022-10-23T11:20:44;21.40;99.90
25482;DHT22;13395;50.752;4.268;2022-10-23T11:23:29;21.60;99.90
25482;DHT22;13395;50.752;4.268;2022-10-23T11:36:30;21.70;99.90
25482;DHT22;13395;50.752;4.268;2022-10-23T11:39:04;21.70;99.90
25482;DHT22;13395;50.752;4.268;2022-10-23T11:41:31;22.00;99.90
25482;DHT22;13395;50.752;4.268;2022-10-23T11:43:59;22.20;99.90
25482;DHT22;13395;50.752;4.268;2022-10-23T11:46:30;22.20;99.90
25482;DHT22;13395;50.752;4.268;2022-10-23T11:48:56;22.10;99.90
25482;DHT22;13395;50.752;4.268;2022-10-23T11:53:50;22.40;99.90
25482;DHT22;13395;50.752;4.268;2022-10-23T12:01:18;22.30;99.90
25482;DHT22;13395;50.752;4.268;2022-10-23T12:04:01;22.30;99.90
25482;DHT22;13395;50.752;4.268;2022-10-23T12:06:37;22.10;99.90
25482;DHT22;13395;50.752;4.268;2022-10-23T12:09:06;22.20;99.90
25482;DHT22;13395;50.752;4.268;2022-10-23T12:11:40;22.10;99.90
25482;DHT22;13395;50.752;4.268;2022-10-23T12:16:58;22.00;99.90
25482;DHT22;13395;50.752;4.268;2022-10-23T12:19:25;22.10;99.90
25482;DHT22;13395;50.752;4.268;2022-10-23T12:21:53;22.10;99.90
25482;DHT22;13395;50.752;4.268;2022-10-23T12:29:37;22.30;99.90
25482;DHT22;13395;50.752;4.268;2022-10-23T12:32:15;22.20;99.90
25482;DHT22;13395;50.752;4.268;2022-10-23T12:40:07;22.50;99.90
25482;DHT22;13395;50.752;4.268;2022-10-23T12:42:33;22.80;99.90
25482;DHT22;13395;50.752;4.268;2022-10-23T12:45:00;23.20;99.90
25482;DHT22;13395;50.752;4.268;2022-10-23T12:47:26;23.30;99.90
25482;DHT22;13395;50.752;4.268;2022-10-23T12:49:52;23.50;99.90
25482;DHT22;13395;50.752;4.268;2022-10-23T12:52:18;23.60;99.90
25482;DHT22;13395;50.752;4.268;2022-10-23T12:54:45;23.80;99.90
25482;DHT22;13395;50.752;4.268;2022-10-23T12:57:29;23.90;99.90
25482;DHT22;13395;50.752;4.268;2022-10-23T13:00:01;24.10;99.90
25482;DHT22;13395;50.752;4.268;2022-10-23T13:02:29;24.20;99.90
25482;DHT22;13395;50.752;4.268;2022-10-23T13:04:56;24.20;99.90
25482;DHT22;13395;50.752;4.268;2022-10-23T13:07:25;24.00;99.90
25482;DHT22;13395;50.752;4.268;2022-10-23T13:09:52;23.70;99.90
25482;DHT22;13395;50.752;4.268;2022-10-23T13:12:27;23.60;99.90
25482;DHT22;13395;50.752;4.268;2022-10-23T13:14:55;23.20;99.90
25482;DHT22;13395;50.752;4.268;2022-10-23T13:17:20;22.90;99.90
25482;DHT22;13395;50.752;4.268;2022-10-23T13:19:46;22.70;99.90
25482;DHT22;13395;50.752;4.268;2022-10-23T13:22:18;22.60;99.90
25482;DHT22;13395;50.752;4.268;2022-10-23T13:24:45;22.70;99.90
25482;DHT22;13395;50.752;4.268;2022-10-23T13:27:23;22.60;99.90
25482;DHT22;13395;50.752;4.268;2022-10-23T13:29:49;22.40;99.90
25482;DHT22;13395;50.752;4.268;2022-10-23T13:32:22;22.30;99.90
25482;DHT22;13395;50.752;4.268;2022-10-23T13:34:51;22.30;99.90
25482;DHT22;13395;50.752;4.268;2022-10-23T13:37:24;22.20;99.90
25482;DHT22;13395;50.752;4.268;2022-10-23T13:42:25;22.00;99.90
25482;DHT22;13395;50.752;4.268;2022-10-23T13:44:50;22.10;99.90
25482;DHT22;13395;50.752;4.268;2022-10-23T13:47:16;22.00;99.90
25482;DHT22;13395;50.752;4.268;2022-10-23T13:49:41;22.10;99.90
25482;DHT22;13395;50.752;4.268;2022-10-23T13:52:08;22.20;99.90
25482;DHT22;13395;50.752;4.268;2022-10-23T13:54:35;22.20;99.90
25482;DHT22;13395;50.752;4.268;2022-10-23T13:57:00;22.20;99.90
25482;DHT22;13395;50.752;4.268;2022-10-23T13:59:26;22.20;99.90
25482;DHT22;13395;50.752;4.268;2022-10-23T14:01:51;22.30;99.90
25482;DHT22;13395;50.752;4.268;2022-10-23T14:04:17;22.30;99.90
25482;DHT22;13395;50.752;4.268;2022-10-23T14:06:43;22.20;99.90
25482;DHT22;13395;50.752;4.268;2022-10-23T14:09:16;22.20;99.90
25482;DHT22;13395;50.752;4.268;2022-10-23T14:11:42;22.10;99.90
25482;DHT22;13395;50.752;4.268;2022-10-23T14:14:07;22.20;99.90
25482;DHT22;13395;50.752;4.268;2022-10-23T14:16:33;22.20;99.90
25482;DHT22;13395;50.752;4.268;2022-10-23T14:18:58;22.10;99.90
25482;DHT22;13395;50.752;4.268;2022-10-23T14:21:24;22.30;99.90
25482;DHT22;13395;50.752;4.268;2022-10-23T14:23:50;22.20;99.90
25482;DHT22;13395;50.752;4.268;2022-10-23T14:26:18;22.20;99.90
25482;DHT22;13395;50.752;4.268;2022-10-23T14:28:43;22.10;99.90
25482;DHT22;13395;50.752;4.268;2022-10-23T14:31:09;22.20;99.90
25482;DHT22;13395;50.752;4.268;2022-10-23T14:33:36;22.10;99.90
25482;DHT22;13395;50.752;4.268;2022-10-23T14:36:02;22.00;99.90
25482;DHT22;13395;50.752;4.268;2022-10-23T14:38:27;21.80;99.90
25482;DHT22;13395;50.752;4.268;2022-10-23T14:40:53;21.80;99.90
25482;DHT22;13395;50.752;4.268;2022-10-23T14:43:19;21.70;99.90
25482;DHT22;13395;50.752;4.268;2022-10-23T14:45:44;21.60;99.90
25482;DHT22;13395;50.752;4.268;2022-10-23T14:48:10;21.60;99.90
25482;DHT22;13395;50.752;4.268;2022-10-23T14:50:36;21.50;99.90
25482;DHT22;13395;50.752;4.268;2022-10-23T14:53:02;21.40;99.90
25482;DHT22;13395;50.752;4.268;2022-10-23T14:55:27;21.30;99.90
25482;DHT22;13395;50.752;4.268;2022-10-23T14:57:53;21.10;99.90
25482;DHT22;13395;50.752;4.268;2022-10-23T15:00:19;21.10;99.90
25482;DHT22;13395;50.752;4.268;2022-10-23T15:02:44;20.90;99.90
25482;DHT22;13395;50.752;4.268;2022-10-23T15:05:10;20.90;99.90
25482;DHT22;13395;50.752;4.268;2022-10-23T15:07:35;20.90;99.90
25482;DHT22;13395;50.752;4.268;2022-10-23T15:10:02;21.00;99.90
25482;DHT22;13395;50.752;4.268;2022-10-23T15:12:27;20.90;99.90
25482;DHT22;13395;50.752;4.268;2022-10-23T15:14:53;20.90;99.90
25482;DHT22;13395;50.752;4.268;2022-10-23T15:17:18;20.90;99.90
25482;DHT22;13395;50.752;4.268;2022-10-23T15:19:44;20.90;99.90
25482;DHT22;13395;50.752;4.268;2022-10-23T15:22:09;20.80;99.90
25482;DHT22;13395;50.752;4.268;2022-10-23T15:24:35;20.90;99.90
25482;DHT22;13395;50.752;4.268;2022-10-23T15:27:00;21.00;99.90
25482;DHT22;13395;50.752;4.268;2022-10-23T15:29:26;21.00;99.90
25482;DHT22;13395;50.752;4.268;2022-10-23T15:31:58;21.00;99.90
25482;DHT22;13395;50.752;4.268;2022-10-23T15:34:24;20.90;99.90
25482;DHT22;13395;50.752;4.268;2022-10-23T15:36:50;21.00;99.90
25482;DHT22;13395;50.752;4.268;2022-10-23T15:39:18;20.90;99.90
25482;DHT22;13395;50.752;4.268;2022-10-23T15:41:43;20.90;99.90
25482;DHT22;13395;50.752;4.268;2022-10-23T15:44:14;21.00;99.90
25482;DHT22;13395;50.752;4.268;2022-10-23T15:46:39;21.10;99.90
25482;DHT22;13395;50.752;4.268;2022-10-23T15:49:05;21.10;99.90
25482;DHT22;13395;50.752;4.268;2022-10-23T15:51:32;21.20;99.90
25482;DHT22;13395;50.752;4.268;2022-10-23T15:53:58;21.20;99.90
25482;DHT22;13395;50.752;4.268;2022-10-23T15:56:24;21.00;99.90
25482;DHT22;13395;50.752;4.268;2022-10-23T15:58:49;21.00;99.90
25482;DHT22;13395;50.752;4.268;2022-10-23T16:01:15;20.90;99.90
25482;DHT22;13395;50.752;4.268;2022-10-23T16:03:40;20.80;99.90
25482;DHT22;13395;50.752;4.268;2022-10-23T16:06:07;20.50;99.90
25482;DHT22;13395;50.752;4.268;2022-10-23T16:08:33;20.40;99.90
25482;DHT22;13395;50.752;4.268;2022-10-23T16:10:58;20.30;99.90
25482;DHT22;13395;50.752;4.268;2022-10-23T16:13:24;20.10;99.90
25482;DHT22;13395;50.752;4.268;2022-10-23T16:15:50;20.10;99.90
25482;DHT22;13395;50.752;4.268;2022-10-23T16:18:16;20.10;99.90
25482;DHT22;13395;50.752;4.268;2022-10-23T16:20:44;20.10;99.90
25482;DHT22;13395;50.752;4.268;2022-10-23T16:23:09;20.00;99.90
25482;DHT22;13395;50.752;4.268;2022-10-23T16:25:35;19.80;99.90
25482;DHT22;13395;50.752;4.268;2022-10-23T16:28:01;19.80;99.90
25482;DHT22;13395;50.752;4.268;2022-10-23T16:30:26;19.80;99.90
25482;DHT22;13395;50.752;4.268;2022-10-23T16:32:52;19.80;99.90
25482;DHT22;13395;50.752;4.268;2022-10-23T16:35:19;19.80;99.90
25482;DHT22;13395;50.752;4.268;2022-10-23T16:37:45;19.80;99.90
25482;DHT22;13395;50.752;4.268;2022-10-23T16:40:10;19.70;99.90
25482;DHT22;13395;50.752;4.268;2022-10-23T16:42:36;19.70;99.90
25482;DHT22;13395;50.752;4.268;2022-10-23T16:45:02;19.70;99.90
25482;DHT22;13395;50.752;4.268;2022-10-23T16:47:31;19.70;99.90
25482;DHT22;13395;50.752;4.268;2022-10-23T16:49:56;19.80;99.90
25482;DHT22;13395;50.752;4.268;2022-10-23T16:52:22;19.80;99.90
25482;DHT22;13395;50.752;4.268;2022-10-23T16:54:48;19.80;99.90
25482;DHT22;13395;50.752;4.268;2022-10-23T16:57:13;19.80;99.90
25482;DHT22;13395;50.752;4.268;2022-10-23T16:59:39;19.70;99.90
25482;DHT22;13395;50.752;4.268;2022-10-23T17:02:04;19.60;99.90
25482;DHT22;13395;50.752;4.268;2022-10-23T17:04:30;19.60;99.90
25482;DHT22;13395;50.752;4.268;2022-10-23T17:06:55;19.50;99.90
25482;DHT22;13395;50.752;4.268;2022-10-23T17:09:21;19.70;99.90
25482;DHT22;13395;50.752;4.268;2022-10-23T17:11:47;19.70;99.90
25482;DHT22;13395;50.752;4.268;2022-10-23T17:14:16;19.70;99.90
25482;DHT22;13395;50.752;4.268;2022-10-23T17:16:51;19.80;99.90
25482;DHT22;13395;50.752;4.268;2022-10-23T17:19:17;19.70;99.90
25482;DHT22;13395;50.752;4.268;2022-10-23T17:21:43;19.70;99.90
25482;DHT22;13395;50.752;4.268;2022-10-23T17:24:09;19.70;99.90
25482;DHT22;13395;50.752;4.268;2022-10-23T17:26:35;19.60;99.90
25482;DHT22;13395;50.752;4.268;2022-10-23T17:29:02;19.50;99.90